createdAt,value
2023-02-06T00:02:22.092Z,-0.40
2023-02-06T00:04:48.866Z,-0.40
2023-02-06T00:07:15.601Z,-0.30
2023-02-06T00:09:44.691Z,-0.30
2023-02-06T00:12:13.829Z,-0.40
2023-02-06T00:14:40.527Z,-0.40
2023-02-06T00:17:07.271Z,-0.40
2023-02-06T00:19:36.127Z,-0.50
2023-02-06T00:22:02.871Z,-0.40
2023-02-06T00:24:31.691Z,-0.40
2023-02-06T00:26:58.425Z,-0.50
2023-02-06T00:29:25.140Z,-0.40
2023-02-06T00:31:51.974Z,-0.50
2023-02-06T00:34:18.717Z,-0.50
2023-02-06T00:36:45.452Z,-0.50
2023-02-06T00:39:12.196Z,-0.50
2023-02-06T00:41:38.971Z,-0.50
2023-02-06T00:44:05.799Z,-0.50
2023-02-06T00:46:32.812Z,-0.50
2023-02-06T00:48:59.926Z,-0.50
2023-02-06T00:51:28.851Z,-0.50
2023-02-06T00:53:55.612Z,-0.50
2023-02-06T00:56:24.749Z,-0.50
2023-02-06T00:58:51.473Z,-0.50
2023-02-06T01:01:20.814Z,-0.50
2023-02-06T01:03:47.546Z,-0.50
2023-02-06T01:06:16.806Z,-0.50
2023-02-06T01:08:43.531Z,-0.50
2023-02-06T01:11:21.110Z,-0.60
2023-02-06T01:13:50.700Z,-0.60
2023-02-06T01:16:21.735Z,-0.50
2023-02-06T01:18:49.010Z,-0.60
2023-02-06T01:21:17.939Z,-0.60
2023-02-06T01:23:44.745Z,-0.60
2023-02-06T01:26:14.974Z,-0.60
2023-02-06T01:28:45.158Z,-0.60
2023-02-06T01:31:12.181Z,-0.60
2023-02-06T01:33:39.480Z,-0.70
2023-02-06T01:36:06.789Z,-0.70
2023-02-06T01:38:33.689Z,-0.70
2023-02-06T01:41:02.278Z,-0.70
2023-02-06T01:43:30.767Z,-0.70
2023-02-06T01:45:57.565Z,-0.70
2023-02-06T01:48:36.525Z,-0.70
2023-02-06T01:51:06.766Z,-0.70
2023-02-06T01:53:36.680Z,-0.70
2023-02-06T01:56:04.834Z,-0.80
2023-02-06T01:58:36.916Z,-0.80
2023-02-06T02:01:04.422Z,-0.80
2023-02-06T02:03:33.827Z,-0.80
2023-02-06T02:06:02.096Z,-0.80
2023-02-06T02:08:36.757Z,-0.80
2023-02-06T02:11:09.468Z,-0.90
2023-02-06T02:13:39.808Z,-0.90
2023-02-06T02:16:09.766Z,-0.90
2023-02-06T02:18:42.266Z,-0.90
2023-02-06T02:21:12.092Z,-1.00
2023-02-06T02:23:45.582Z,-1.00
2023-02-06T02:26:12.432Z,-1.00
2023-02-06T02:28:54.514Z,-1.00
2023-02-06T02:31:37.763Z,-1.00
2023-02-06T02:34:23.952Z,-1.00
2023-02-06T02:37:01.332Z,-1.00
2023-02-06T02:39:46.899Z,-1.00
2023-02-06T02:42:28.828Z,-1.00
2023-02-06T02:45:03.611Z,-1.00
2023-02-06T02:47:31.987Z,-1.00
2023-02-06T02:50:00.261Z,-1.00
2023-02-06T02:52:28.327Z,-1.00
2023-02-06T02:54:55.012Z,-0.90
2023-02-06T02:57:26.997Z,-1.00
2023-02-06T02:59:54.920Z,-0.90
2023-02-06T03:02:25.463Z,-0.90
2023-02-06T03:05:05.689Z,-0.90
2023-02-06T03:07:34.845Z,-0.90
2023-02-06T03:10:01.863Z,-0.90
2023-02-06T03:12:34.962Z,-0.80
2023-02-06T03:15:20.698Z,-0.80
2023-02-06T03:17:52.787Z,-0.80
2023-02-06T03:20:20.400Z,-0.80
2023-02-06T03:22:48.830Z,-0.80
2023-02-06T03:25:18.955Z,-0.80
2023-02-06T03:27:48.606Z,-0.80
2023-02-06T03:30:16.534Z,-0.80
2023-02-06T03:32:48.135Z,-0.80
2023-02-06T03:35:23.469Z,-0.80
2023-02-06T03:37:50.366Z,-0.70
2023-02-06T03:40:17.436Z,-0.70
2023-02-06T03:42:46.531Z,-0.70
2023-02-06T03:45:17.667Z,-0.70
2023-02-06T03:47:45.963Z,-0.70
2023-02-06T03:50:13.582Z,-0.70
2023-02-06T03:52:43.840Z,-0.70
2023-02-06T03:55:15.193Z,-0.70
2023-02-06T03:57:46.323Z,-0.70
2023-02-06T04:00:15.262Z,-0.70
2023-02-06T04:02:42.474Z,-0.70
2023-02-06T04:05:09.265Z,-0.70
2023-02-06T04:07:36.180Z,-0.70
2023-02-06T04:10:03.712Z,-0.70
2023-02-06T04:12:30.506Z,-0.70
2023-02-06T04:15:40.934Z,-0.60
2023-02-06T04:18:07.664Z,-0.60
2023-02-06T04:20:34.378Z,-0.60
2023-02-06T04:23:01.113Z,-0.60
2023-02-06T04:25:30.356Z,-0.50
2023-02-06T04:27:57.195Z,-0.50
2023-02-06T04:30:23.968Z,-0.50
2023-02-06T04:32:51.159Z,-0.50
2023-02-06T04:35:19.977Z,-0.50
2023-02-06T04:37:46.708Z,-0.50
2023-02-06T04:40:13.464Z,-0.60
2023-02-06T04:42:40.230Z,-0.60
2023-02-06T04:45:07.189Z,-0.50
2023-02-06T04:47:33.954Z,-0.50
2023-02-06T04:50:00.706Z,-0.50
2023-02-06T04:52:27.418Z,-0.50
2023-02-06T04:54:54.158Z,-0.50
2023-02-06T04:57:20.912Z,-0.50
2023-02-06T04:59:47.633Z,-0.50
2023-02-06T05:02:14.517Z,-0.50
2023-02-06T05:04:41.277Z,-0.50
2023-02-06T05:07:10.120Z,-0.50
2023-02-06T05:09:38.934Z,-0.50
2023-02-06T05:12:05.680Z,-0.50
2023-02-06T05:14:32.395Z,-0.50
2023-02-06T05:16:59.176Z,-0.50
2023-02-06T05:19:25.880Z,-0.50
2023-02-06T05:21:52.649Z,-0.40
2023-02-06T05:24:21.835Z,-0.40
2023-02-06T05:26:50.930Z,-0.40
2023-02-06T05:29:17.735Z,-0.40
2023-02-06T05:31:44.617Z,-0.40
2023-02-06T05:34:11.329Z,-0.40
2023-02-06T05:36:38.679Z,-0.40
2023-02-06T05:39:05.499Z,-0.40
2023-02-06T05:41:32.276Z,-0.40
2023-02-06T05:44:01.374Z,-0.40
2023-02-06T05:46:28.174Z,-0.30
2023-02-06T05:48:54.938Z,-0.30
2023-02-06T05:51:21.662Z,-0.30
2023-02-06T05:53:48.442Z,-0.30
2023-02-06T05:56:17.945Z,-0.30
2023-02-06T05:58:45.080Z,-0.30
2023-02-06T06:01:12.734Z,-0.30
2023-02-06T06:03:39.595Z,-0.30
2023-02-06T06:06:08.984Z,-0.30
2023-02-06T06:08:35.928Z,-0.30
2023-02-06T06:11:04.895Z,-0.30
2023-02-06T06:13:34.221Z,-0.30
2023-02-06T06:16:03.100Z,-0.20
2023-02-06T06:18:32.198Z,-0.30
2023-02-06T06:20:58.984Z,-0.20
2023-02-06T06:23:25.731Z,-0.20
2023-02-06T06:25:54.548Z,-0.20
2023-02-06T06:28:25.706Z,-0.20
2023-02-06T06:30:59.673Z,-0.10
2023-02-06T06:33:26.536Z,-0.10
2023-02-06T06:35:55.849Z,-0.10
2023-02-06T06:38:23.004Z,-0.10
2023-02-06T06:40:49.833Z,-0.10
2023-02-06T06:43:16.577Z,-0.10
2023-02-06T06:45:43.340Z,-0.10
2023-02-06T06:48:10.192Z,-0.10
2023-02-06T06:50:36.930Z,-0.10
2023-02-06T06:53:04.133Z,-0.10
2023-02-06T06:55:31.514Z,-0.10
2023-02-06T06:58:00.755Z,0.00
2023-02-06T07:00:27.599Z,0.00
2023-02-06T07:02:54.424Z,0.00
2023-02-06T07:05:21.348Z,0.00
2023-02-06T07:07:48.145Z,0.00
2023-02-06T07:10:14.948Z,0.00
2023-02-06T07:12:41.764Z,0.00
2023-02-06T07:15:10.931Z,0.00
2023-02-06T07:17:40.346Z,0.00
2023-02-06T07:20:12.142Z,0.10
2023-02-06T07:22:41.397Z,0.00
2023-02-06T07:25:08.253Z,0.10
2023-02-06T07:27:35.073Z,0.10
2023-02-06T07:30:06.473Z,0.10
2023-02-06T07:32:36.988Z,0.10
2023-02-06T07:35:04.069Z,0.10
2023-02-06T07:37:30.876Z,0.10
2023-02-06T07:39:59.982Z,0.10
2023-02-06T07:42:26.693Z,0.20
2023-02-06T07:44:58.166Z,0.20
2023-02-06T07:47:24.975Z,0.20
2023-02-06T07:49:51.973Z,0.20
2023-02-06T07:52:22.330Z,0.30
2023-02-06T07:54:49.145Z,0.30
2023-02-06T07:57:16.678Z,0.30
2023-02-06T07:59:43.402Z,0.40
2023-02-06T08:02:11.262Z,0.40
2023-02-06T08:04:38.217Z,0.50
2023-02-06T08:07:05.438Z,0.50
2023-02-06T08:09:32.749Z,0.50
2023-02-06T08:11:59.522Z,0.50
2023-02-06T08:14:26.316Z,0.60
2023-02-06T08:16:53.200Z,0.60
2023-02-06T08:19:20.847Z,0.60
2023-02-06T08:21:47.667Z,0.70
2023-02-06T08:24:14.578Z,0.70
2023-02-06T08:26:46.325Z,0.70
2023-02-06T08:29:15.587Z,0.70
2023-02-06T08:31:42.773Z,0.70
2023-02-06T08:34:11.447Z,0.70
2023-02-06T08:36:43.145Z,0.70
2023-02-06T08:39:14.196Z,0.70
2023-02-06T08:41:41.852Z,0.70
2023-02-06T08:44:13.008Z,0.70
2023-02-06T08:46:40.249Z,0.70
2023-02-06T08:49:08.309Z,0.70
2023-02-06T08:51:35.365Z,0.70
2023-02-06T08:54:03.445Z,0.70
2023-02-06T08:56:33.493Z,0.80
2023-02-06T08:59:00.653Z,0.90
2023-02-06T09:01:28.416Z,0.90
2023-02-06T09:03:59.398Z,0.90
2023-02-06T09:09:18.716Z,1.00
2023-02-06T09:11:48.325Z,1.00
2023-02-06T09:14:20.387Z,1.00
2023-02-06T09:17:07.336Z,1.10
2023-02-06T09:19:44.299Z,1.20
2023-02-06T09:22:24.242Z,1.20
2023-02-06T09:25:25.661Z,1.20
2023-02-06T09:28:12.284Z,1.30
2023-02-06T09:30:49.512Z,1.30
2023-02-06T09:33:34.237Z,1.30
2023-02-06T09:36:04.493Z,1.30
2023-02-06T09:38:42.211Z,1.30
2023-02-06T09:41:35.309Z,1.30
2023-02-06T09:44:12.437Z,1.20
2023-02-06T09:47:10.776Z,1.20
2023-02-06T09:49:58.097Z,1.10
2023-02-06T09:52:31.292Z,1.10
2023-02-06T09:55:07.966Z,1.10
2023-02-06T09:57:53.557Z,1.10
2023-02-06T10:01:12.051Z,1.20
2023-02-06T10:03:54.059Z,1.20
2023-02-06T10:06:20.999Z,1.20
2023-02-06T10:08:59.888Z,1.20
2023-02-06T10:11:33.025Z,1.30
2023-02-06T10:14:04.663Z,1.30
2023-02-06T10:16:37.792Z,1.30
2023-02-06T10:19:09.447Z,1.30
2023-02-06T10:21:42.527Z,1.40
2023-02-06T10:24:28.245Z,1.40
2023-02-06T10:26:58.207Z,1.40
2023-02-06T10:29:29.893Z,1.40
2023-02-06T10:31:56.797Z,1.40
2023-02-06T10:34:38.162Z,1.40
2023-02-06T10:37:15.366Z,1.40
2023-02-06T10:39:59.192Z,1.50
2023-02-06T10:42:26.016Z,1.50
2023-02-06T10:45:19.272Z,1.60
2023-02-06T10:48:13.211Z,1.60
2023-02-06T10:51:00.167Z,1.70
2023-02-06T10:53:43.266Z,1.60
2023-02-06T10:56:13.256Z,1.70
2023-02-06T10:58:48.850Z,1.70
2023-02-06T11:01:26.312Z,1.60
2023-02-06T11:04:05.562Z,1.60
2023-02-06T11:06:32.696Z,1.60
2023-02-06T11:08:59.769Z,1.60
2023-02-06T11:11:31.954Z,1.60
2023-02-06T11:14:20.741Z,1.60
2023-02-06T11:16:50.332Z,1.60
2023-02-06T11:19:37.098Z,1.70
2023-02-06T11:22:15.672Z,1.70
2023-02-06T11:25:07.823Z,1.70
2023-02-06T11:27:36.448Z,1.70
2023-02-06T11:30:26.229Z,1.70
2023-02-06T11:33:04.795Z,1.70
2023-02-06T11:35:40.546Z,1.80
2023-02-06T11:38:24.146Z,1.80
2023-02-06T11:41:01.783Z,1.80
2023-02-06T11:43:32.616Z,1.70
2023-02-06T11:46:15.673Z,1.70
2023-02-06T11:48:44.011Z,1.80
2023-02-06T11:51:13.691Z,1.80
2023-02-06T11:54:00.299Z,1.80
2023-02-06T11:56:27.578Z,1.80
2023-02-06T11:59:02.155Z,1.80
2023-02-06T12:01:28.920Z,1.80
2023-02-06T12:03:57.442Z,1.70
2023-02-06T12:06:32.648Z,1.70
2023-02-06T12:09:02.891Z,1.70
2023-02-06T12:11:48.676Z,1.80
2023-02-06T12:14:29.493Z,1.70
2023-02-06T12:16:58.207Z,1.60
2023-02-06T12:19:33.703Z,1.60
2023-02-06T12:22:07.581Z,1.60
2023-02-06T12:24:44.261Z,1.70
2023-02-06T12:27:29.859Z,1.80
2023-02-06T12:29:56.656Z,1.80
2023-02-06T12:32:28.379Z,1.80
2023-02-06T12:35:00.829Z,1.80
2023-02-06T12:37:35.827Z,1.80
2023-02-06T12:40:02.790Z,1.80
2023-02-06T12:42:41.067Z,1.80
2023-02-06T12:45:55.522Z,1.80
2023-02-06T12:48:30.790Z,1.80
2023-02-06T12:50:57.533Z,1.70
2023-02-06T12:53:29.423Z,1.80
2023-02-06T12:56:00.776Z,1.80
2023-02-06T12:58:28.071Z,1.70
2023-02-06T13:01:25.905Z,1.70
2023-02-06T13:03:56.997Z,1.60
2023-02-06T13:06:28.605Z,1.70
2023-02-06T13:09:17.616Z,1.80
2023-02-06T13:11:44.636Z,1.80
2023-02-06T13:14:26.146Z,1.80
2023-02-06T13:17:10.117Z,1.90
2023-02-06T13:19:36.915Z,2.00
2023-02-06T13:22:09.774Z,2.00
2023-02-06T13:24:41.359Z,2.10
2023-02-06T13:27:08.180Z,2.10
2023-02-06T13:29:39.641Z,1.90
2023-02-06T13:32:12.665Z,1.90
2023-02-06T13:34:43.109Z,2.00
2023-02-06T13:37:37.533Z,2.00
2023-02-06T13:40:23.176Z,2.10
2023-02-06T13:43:01.359Z,2.10
2023-02-06T13:45:37.002Z,2.20
2023-02-06T13:48:28.420Z,2.20
2023-02-06T13:51:10.434Z,2.20
2023-02-06T13:54:11.086Z,2.10
2023-02-06T13:57:12.828Z,2.20
2023-02-06T13:59:54.433Z,2.20
2023-02-06T14:02:31.051Z,2.20
2023-02-06T14:04:58.844Z,2.20
2023-02-06T14:07:28.650Z,2.20
2023-02-06T14:10:33.115Z,2.20
2023-02-06T14:13:18.085Z,2.20
2023-02-06T14:16:21.563Z,2.30
2023-02-06T14:19:19.691Z,2.30
2023-02-06T14:22:14.128Z,2.30
2023-02-06T14:24:54.106Z,2.30
2023-02-06T14:27:44.208Z,2.30
2023-02-06T14:30:11.160Z,2.30
2023-02-06T14:32:56.893Z,2.30
2023-02-06T14:35:45.660Z,2.30
2023-02-06T14:38:39.899Z,2.30
2023-02-06T14:41:07.612Z,2.20
2023-02-06T14:43:39.494Z,2.20
2023-02-06T14:46:13.913Z,2.20
2023-02-06T14:48:47.386Z,2.10
2023-02-06T14:51:39.154Z,2.10
2023-02-06T14:54:27.624Z,2.10
2023-02-06T14:56:59.894Z,2.10
2023-02-06T14:59:27.689Z,2.10
2023-02-06T15:01:56.079Z,2.20
2023-02-06T15:04:30.022Z,2.10
2023-02-06T15:07:03.210Z,2.10
2023-02-06T15:09:38.981Z,2.10
2023-02-06T15:12:24.903Z,2.10
2023-02-06T15:14:55.150Z,2.10
2023-02-06T15:17:26.107Z,2.00
2023-02-06T15:19:53.013Z,2.00
2023-02-06T15:22:28.335Z,2.00
2023-02-06T15:25:04.811Z,1.90
2023-02-06T15:27:36.352Z,1.90
2023-02-06T15:30:20.628Z,1.80
2023-02-06T15:32:52.460Z,1.80
2023-02-06T15:35:23.636Z,1.70
2023-02-06T15:37:52.814Z,1.70
2023-02-06T15:40:36.022Z,1.60
2023-02-06T15:43:04.226Z,1.60
2023-02-06T15:45:39.099Z,1.60
2023-02-06T15:48:33.885Z,1.60
2023-02-06T15:51:17.268Z,1.50
2023-02-06T15:53:48.651Z,1.50
2023-02-06T15:56:35.937Z,1.50
2023-02-06T15:59:25.303Z,1.50
2023-02-06T16:01:57.412Z,1.40
2023-02-06T16:04:36.752Z,1.50
2023-02-06T16:07:14.989Z,1.50
2023-02-06T16:09:53.698Z,1.40
2023-02-06T16:12:23.067Z,1.40
2023-02-06T16:14:57.959Z,1.40
2023-02-06T16:17:34.348Z,1.40
2023-02-06T16:20:28.909Z,1.40
2023-02-06T16:23:18.059Z,1.40
2023-02-06T16:25:58.751Z,1.30
2023-02-06T16:28:28.956Z,1.30
2023-02-06T16:31:03.059Z,1.30
2023-02-06T16:33:32.827Z,1.30
2023-02-06T16:35:59.568Z,1.30
2023-02-06T16:38:26.368Z,1.30
2023-02-06T16:40:56.085Z,1.20
2023-02-06T16:43:25.690Z,1.30
2023-02-06T16:45:52.559Z,1.30
2023-02-06T16:48:19.336Z,1.20
2023-02-06T16:50:47.230Z,1.20
2023-02-06T16:53:18.691Z,1.20
2023-02-06T16:55:47.820Z,1.20
2023-02-06T16:58:21.536Z,1.20
2023-02-06T17:00:50.769Z,1.20
2023-02-06T17:03:19.615Z,1.20
2023-02-06T17:05:48.093Z,1.20
2023-02-06T17:08:19.015Z,1.20
2023-02-06T17:10:46.832Z,1.20
2023-02-06T17:13:17.584Z,1.10
2023-02-06T17:15:47.065Z,1.10
2023-02-06T17:18:14.888Z,1.10
2023-02-06T17:20:42.487Z,1.10
2023-02-06T17:23:11.912Z,1.10
2023-02-06T17:25:39.417Z,1.00
2023-02-06T17:28:07.510Z,1.00
2023-02-06T17:30:35.842Z,1.00
2023-02-06T17:33:03.217Z,0.90
2023-02-06T17:35:30.095Z,1.00
2023-02-06T17:37:56.911Z,1.00
2023-02-06T17:40:25.376Z,0.90
2023-02-06T17:42:54.738Z,1.00
2023-02-06T17:45:21.898Z,1.00
2023-02-06T17:47:50.793Z,0.90
2023-02-06T17:50:21.173Z,0.90
2023-02-06T17:52:47.963Z,0.90
2023-02-06T17:55:15.280Z,0.90
2023-02-06T17:57:42.228Z,0.90
2023-02-06T18:00:12.804Z,0.90
2023-02-06T18:02:39.711Z,0.90
2023-02-06T18:05:06.568Z,0.90
2023-02-06T18:07:33.364Z,0.90
2023-02-06T18:10:02.325Z,0.90
2023-02-06T18:12:29.152Z,0.90
2023-02-06T18:14:55.952Z,0.90
2023-02-06T18:17:24.843Z,0.90
2023-02-06T18:19:52.150Z,0.90
2023-02-06T18:22:19.904Z,0.80
2023-02-06T18:24:49.762Z,0.80
2023-02-06T18:27:17.356Z,0.80
2023-02-06T18:29:49.795Z,0.80
2023-02-06T18:32:17.963Z,0.80
2023-02-06T18:34:44.707Z,0.80
2023-02-06T18:37:13.846Z,0.80
2023-02-06T18:39:40.674Z,0.80
2023-02-06T18:42:26.131Z,0.70
2023-02-06T18:44:52.913Z,0.80
2023-02-06T18:47:19.827Z,0.70
2023-02-06T18:49:46.688Z,0.80
2023-02-06T18:52:13.682Z,0.70
2023-02-06T18:54:40.499Z,0.70
2023-02-06T18:57:09.840Z,0.70
2023-02-06T18:59:36.761Z,0.70
2023-02-06T19:02:03.657Z,0.70
2023-02-06T19:04:34.599Z,0.70
2023-02-06T19:07:03.843Z,0.70
2023-02-06T19:09:30.656Z,0.60
2023-02-06T19:11:57.497Z,0.60
2023-02-06T19:14:25.319Z,0.60
2023-02-06T19:16:54.990Z,0.60
2023-02-06T19:19:21.876Z,0.60
2023-02-06T19:21:48.807Z,0.60
2023-02-06T19:24:18.401Z,0.50
2023-02-06T19:26:45.341Z,0.50
2023-02-06T19:29:16.769Z,0.50
2023-02-06T19:31:46.673Z,0.50
2023-02-06T19:34:15.991Z,0.50
2023-02-06T19:36:42.864Z,0.40
2023-02-06T19:39:11.282Z,0.40
2023-02-06T19:41:38.365Z,0.40
2023-02-06T19:44:06.540Z,0.40
2023-02-06T19:46:40.812Z,0.40
2023-02-06T19:49:08.696Z,0.40
2023-02-06T19:51:41.376Z,0.40
2023-02-06T19:54:08.290Z,0.30
2023-02-06T19:56:39.800Z,0.30
2023-02-06T19:59:13.541Z,0.30
2023-02-06T20:01:40.283Z,0.30
2023-02-06T20:04:07.118Z,0.30
2023-02-06T20:06:35.193Z,0.30
2023-02-06T20:09:03.385Z,0.20
2023-02-06T20:11:30.893Z,0.20
2023-02-06T20:14:00.042Z,0.20
2023-02-06T20:16:29.212Z,0.20
2023-02-06T20:18:58.785Z,0.20
2023-02-06T20:21:32.589Z,0.20
2023-02-06T20:24:03.626Z,0.20
2023-02-06T20:26:32.962Z,0.20
2023-02-06T20:28:59.947Z,0.10
2023-02-06T20:31:33.214Z,0.10
2023-02-06T20:34:00.006Z,0.10
2023-02-06T20:36:28.806Z,0.10
2023-02-06T20:38:57.347Z,0.10
2023-02-06T20:41:28.588Z,0.00
2023-02-06T20:43:58.593Z,0.00
2023-02-06T20:46:29.781Z,0.00
2023-02-06T20:48:57.594Z,0.00
2023-02-06T20:51:29.689Z,0.00
2023-02-06T20:53:59.007Z,-0.10
2023-02-06T20:56:26.070Z,-0.10
2023-02-06T20:58:52.807Z,-0.10
2023-02-06T21:01:19.586Z,-0.10
2023-02-06T21:03:49.312Z,-0.10
2023-02-06T21:06:16.217Z,-0.10
2023-02-06T21:08:47.364Z,-0.10
2023-02-06T21:11:16.197Z,-0.10
2023-02-06T21:13:43.098Z,-0.10
2023-02-06T21:16:13.384Z,-0.10
2023-02-06T21:18:43.076Z,-0.10
2023-02-06T21:21:11.087Z,-0.10
2023-02-06T21:23:41.038Z,-0.10
2023-02-06T21:26:08.528Z,-0.10
2023-02-06T21:28:35.838Z,-0.10
2023-02-06T21:31:04.705Z,-0.10
2023-02-06T21:33:31.638Z,-0.10
2023-02-06T21:35:58.425Z,-0.10
2023-02-06T21:38:25.141Z,-0.20
2023-02-06T21:40:54.407Z,-0.20
2023-02-06T21:43:21.152Z,-0.20
2023-02-06T21:45:50.603Z,-0.20
2023-02-06T21:48:17.523Z,-0.20
2023-02-06T21:50:44.955Z,-0.20
2023-02-06T21:53:14.210Z,-0.20
2023-02-06T21:55:42.054Z,-0.20
2023-02-06T21:58:14.444Z,-0.20
2023-02-06T22:00:42.475Z,-0.20
2023-02-06T22:03:09.241Z,-0.20
2023-02-06T22:05:38.745Z,-0.20
2023-02-06T22:08:06.093Z,-0.20
2023-02-06T22:10:34.892Z,-0.20
2023-02-06T22:13:01.663Z,-0.20
2023-02-06T22:15:28.358Z,-0.20
2023-02-06T22:17:55.088Z,-0.20
2023-02-06T22:20:21.998Z,-0.20
2023-02-06T22:22:48.742Z,-0.30
2023-02-06T22:25:15.495Z,-0.30
2023-02-06T22:27:43.424Z,-0.30
2023-02-06T22:30:12.774Z,-0.30
2023-02-06T22:32:40.014Z,-0.30
2023-02-06T22:35:07.204Z,-0.30
2023-02-06T22:37:34.209Z,-0.40
2023-02-06T22:40:01.049Z,-0.40
2023-02-06T22:42:27.833Z,-0.40
2023-02-06T22:44:54.639Z,-0.40
2023-02-06T22:47:21.407Z,-0.40
2023-02-06T22:49:50.093Z,-0.40
2023-02-06T22:52:35.366Z,-0.40
2023-02-06T22:55:04.138Z,-0.40
2023-02-06T22:57:30.842Z,-0.40
2023-02-06T22:59:57.562Z,-0.40
2023-02-06T23:02:26.689Z,-0.40
2023-02-06T23:04:53.497Z,-0.40
2023-02-06T23:07:20.241Z,-0.40
2023-02-06T23:09:46.930Z,-0.40
2023-02-06T23:12:13.796Z,-0.40
2023-02-06T23:14:40.608Z,-0.40
2023-02-06T23:17:07.443Z,-0.40
2023-02-06T23:19:34.244Z,-0.40
2023-02-06T23:22:01.017Z,-0.40
2023-02-06T23:24:27.860Z,-0.40
2023-02-06T23:26:54.821Z,-0.30
2023-02-06T23:29:22.324Z,-0.40
2023-02-06T23:31:49.586Z,-0.40
2023-02-06T23:34:17.164Z,-0.40
2023-02-06T23:36:44.539Z,-0.40
2023-02-06T23:39:11.906Z,-0.40
2023-02-06T23:41:38.789Z,-0.40
2023-02-06T23:44:09.004Z,-0.40
2023-02-06T23:46:36.824Z,-0.40
2023-02-06T23:49:04.294Z,-0.50
2023-02-06T23:51:32.888Z,-0.40
2023-02-06T23:53:59.603Z,-0.50
2023-02-06T23:56:28.299Z,-0.50
2023-02-06T23:58:56.052Z,-0.50
